Time;durP1;ratioP1;P1;durP2;ratioP2;P2;SDS_P1;SDS_P2;PMS_P1;PMS_P2;Temp;Humidity;BMP_temperature;BMP_pressure;BME280_temperature;BME280_humidity;BME280_pressure;Samples;Min_cycle;Max_cycle;Signal;HPM_P1;HPM_P2
2021/03/07 00:01:49;;;;;;;13.60;6.20;;;;;;;-2.14;92.92;97164.53;4981913;28;20624;-73
2021/03/07 00:04:15;;;;;;;11.97;6.33;;;;;;;-2.26;92.76;97170.31;4980825;28;20238;-74
2021/03/07 00:06:41;;;;;;;15.07;5.80;;;;;;;-2.27;93.62;97168.63;4980768;28;20318;-73
2021/03/07 00:09:07;;;;;;;15.07;6.43;;;;;;;-2.46;93.25;97163.66;4980769;28;20226;-74
2021/03/07 00:11:34;;;;;;;13.27;6.50;;;;;;;-2.51;92.91;97169.03;4981272;28;20289;-73
2021/03/07 00:14:00;;;;;;;12.43;6.53;;;;;;;-2.61;94.61;97161.84;4980914;28;20226;-74
2021/03/07 00:16:26;;;;;;;13.60;6.00;;;;;;;-2.49;94.60;97156.91;4980640;28;20282;-73
2021/03/07 00:18:52;;;;;;;12.47;6.43;;;;;;;-2.57;93.53;97160.75;4980668;28;20305;-74
2021/03/07 00:21:18;;;;;;;11.27;5.70;;;;;;;-2.62;93.17;97161.00;4984986;28;20210;-74
2021/03/07 00:23:44;;;;;;;13.30;6.23;;;;;;;-2.53;93.32;97157.13;4982157;28;20234;-74
2021/03/07 00:26:10;;;;;;;15.00;6.40;;;;;;;-2.60;93.18;97158.34;4980399;28;20243;-73
2021/03/07 00:28:36;;;;;;;13.80;6.93;;;;;;;-2.69;92.71;97158.81;4983591;28;20237;-74
2021/03/07 00:31:02;;;;;;;14.57;6.27;;;;;;;-2.69;92.78;97161.38;4980913;28;20264;-74
2021/03/07 00:33:28;;;;;;;15.93;6.40;;;;;;;-2.83;93.39;97166.38;4980873;28;20231;-73
2021/03/07 00:35:54;;;;;;;13.97;6.40;;;;;;;-2.77;93.38;97166.09;4982738;28;20215;-73
2021/03/07 00:38:20;;;;;;;10.60;5.40;;;;;;;-2.80;94.37;97167.06;4986053;28;20200;-74
2021/03/07 00:40:47;;;;;;;14.53;6.17;;;;;;;-2.89;95.51;97162.38;4980491;28;20216;-74
2021/03/07 00:43:13;;;;;;;13.73;6.33;;;;;;;-2.87;95.18;97165.69;4986317;28;20238;-73
2021/03/07 00:45:39;;;;;;;13.43;6.57;;;;;;;-2.83;95.57;97154.31;4979492;28;20218;-73
2021/03/07 00:48:06;;;;;;;13.27;5.80;;;;;;;-2.75;95.29;97153.94;4980615;28;20234;-74
2021/03/07 00:50:32;;;;;;;14.90;6.33;;;;;;;-2.77;93.85;97153.19;4980471;28;20207;-74
2021/03/07 00:52:58;;;;;;;14.97;6.40;;;;;;;-2.72;93.67;97161.53;4980332;28;21003;-74
2021/03/07 00:55:25;;;;;;;14.60;6.20;;;;;;;-2.69;93.99;97153.66;4982092;28;20285;-74
2021/03/07 00:57:51;;;;;;;14.77;7.10;;;;;;;-2.68;93.95;97152.75;4985875;28;20204;-73
2021/03/07 01:00:20;;;;;;;13.13;6.47;;;;;;;-2.76;93.64;97157.41;4979384;28;20213;-73
2021/03/07 01:02:47;;;;;;;15.37;6.33;;;;;;;-2.75;94.80;97153.94;4980175;28;20228;-74
2021/03/07 01:05:15;;;;;;;16.37;6.80;;;;;;;-2.69;94.40;97154.47;4979272;28;20670;-74
2021/03/07 01:07:41;;;;;;;13.20;6.50;;;;;;;-2.74;94.86;97151.28;4980039;28;20232;-74
2021/03/07 01:10:12;;;;;;;13.67;6.73;;;;;;;-2.79;95.12;97155.00;4980008;28;20215;-74
2021/03/07 01:12:38;;;;;;;12.90;6.30;;;;;;;-2.81;94.87;97154.25;4980355;28;20231;-74
2021/03/07 01:15:06;;;;;;;14.10;6.27;;;;;;;-2.87;95.51;97149.38;4978651;28;20211;-74
2021/03/07 01:17:32;;;;;;;14.80;6.20;;;;;;;-2.83;95.92;97138.84;4979799;28;20209;-74
2021/03/07 01:19:58;;;;;;;12.60;6.23;;;;;;;-2.82;96.55;97137.09;4983047;28;20620;-74
2021/03/07 01:22:25;;;;;;;13.03;6.10;;;;;;;-2.96;95.31;97126.63;4984121;28;20233;-74
2021/03/07 01:24:50;;;;;;;12.00;6.33;;;;;;;-2.89;93.97;97125.41;4980238;28;20218;-74
2021/03/07 01:27:16;;;;;;;15.37;6.53;;;;;;;-3.03;95.61;97127.81;4979287;28;20282;-74
2021/03/07 01:29:42;;;;;;;18.93;7.13;;;;;;;-2.89;96.44;97115.09;4979472;28;21137;-74
2021/03/07 01:32:08;;;;;;;15.23;6.13;;;;;;;-2.83;94.56;97125.94;4978787;28;20242;-74
2021/03/07 01:34:34;;;;;;;13.10;6.70;;;;;;;-2.83;94.75;97120.78;4979686;28;20210;-74
2021/03/07 01:37:01;;;;;;;13.57;6.30;;;;;;;-2.95;95.09;97121.41;4979021;28;20219;-74
2021/03/07 01:39:27;;;;;;;13.00;6.40;;;;;;;-2.89;95.08;97117.69;4979286;28;20214;-73
2021/03/07 01:41:53;;;;;;;14.97;6.43;;;;;;;-2.95;94.57;97116.25;4982921;28;20210;-74
2021/03/07 01:44:19;;;;;;;13.90;6.50;;;;;;;-2.90;93.75;97113.47;4980026;28;20604;-74
2021/03/07 01:46:45;;;;;;;13.10;6.27;;;;;;;-3.04;94.42;97115.88;4978190;28;20334;-74
2021/03/07 01:49:11;;;;;;;16.47;6.63;;;;;;;-3.08;95.88;97114.34;4979391;28;20277;-74
2021/03/07 01:51:37;;;;;;;14.30;6.90;;;;;;;-3.05;96.36;97098.72;4979751;28;20211;-74
2021/03/07 01:54:05;;;;;;;12.40;5.80;;;;;;;-3.01;94.97;97106.22;4985225;28;20227;-74
2021/03/07 01:56:32;;;;;;;16.03;6.73;;;;;;;-3.00;94.97;97102.75;4978458;28;20211;-73
2021/03/07 01:59:02;;;;;;;11.73;5.70;;;;;;;-2.93;94.29;97098.13;4982238;28;20204;-73
2021/03/07 02:01:28;;;;;;;12.27;6.40;;;;;;;-2.98;94.68;97093.19;4992069;28;20210;-72
2021/03/07 02:03:54;;;;;;;13.60;6.40;;;;;;;-3.02;94.58;97089.09;4979766;28;20239;-73
2021/03/07 02:06:21;;;;;;;13.33;6.47;;;;;;;-3.07;92.89;97079.91;4978511;28;20202;-73
2021/03/07 02:08:48;;;;;;;13.90;6.20;;;;;;;-3.16;93.01;97072.63;4978962;28;20229;-72
2021/03/07 02:11:16;;;;;;;14.33;6.43;;;;;;;-3.30;94.73;97062.16;4978742;28;20214;-73
2021/03/07 02:13:43;;;;;;;12.77;5.93;;;;;;;-3.44;94.77;97062.00;4978720;28;20870;-72
2021/03/07 02:16:13;;;;;;;12.67;6.20;;;;;;;-3.54;95.34;97063.34;4978645;28;20211;-73
2021/03/07 02:18:40;;;;;;;17.33;7.00;;;;;;;-3.59;98.40;97055.00;4978530;28;20208;-73
2021/03/07 02:21:10;;;;;;;17.47;7.10;;;;;;;-3.56;100.00;97065.16;4978430;28;20671;-73
2021/03/07 02:23:46;;;;;;;18.10;7.63;;;;;;;-3.38;100.00;97050.56;4978375;28;20234;-74
2021/03/07 02:26:12;;;;;;;18.00;7.13;;;;;;;-3.38;98.14;97048.00;4978410;28;20221;-73
2021/03/07 02:28:39;;;;;;;14.77;6.20;;;;;;;-3.44;98.05;97046.53;4978122;28;20249;-73
2021/03/07 02:31:05;;;;;;;17.40;7.03;;;;;;;-3.41;98.05;97046.41;4978644;28;20221;-73
2021/03/07 02:33:34;;;;;;;13.57;6.33;;;;;;;-3.34;98.02;97045.19;4981030;28;20290;-73
2021/03/07 02:36:05;;;;;;;16.03;7.07;;;;;;;-3.42;98.37;97041.34;4978450;28;20208;-73
2021/03/07 02:38:33;;;;;;;16.00;7.20;;;;;;;-3.54;97.72;97050.47;4978642;28;20217;-73
2021/03/07 02:41:01;;;;;;;17.73;6.47;;;;;;;-3.39;95.85;97054.06;4978853;28;20205;-73
2021/03/07 02:43:32;;;;;;;21.53;7.23;;;;;;;-3.43;95.87;97053.34;4984604;28;20583;-74
2021/03/07 02:46:01;;;;;;;15.87;6.53;;;;;;;-3.38;96.74;97042.84;4979006;28;20209;-74
2021/03/07 02:48:29;;;;;;;14.97;6.63;;;;;;;-3.34;97.42;97042.59;4977571;28;20226;-73
2021/03/07 02:50:57;;;;;;;13.90;6.60;;;;;;;-3.27;96.77;97037.97;4977918;28;20210;-73
2021/03/07 02:53:26;;;;;;;17.17;6.80;;;;;;;-3.22;96.28;97034.31;4978054;28;20253;-74
2021/03/07 02:55:57;;;;;;;16.17;6.57;;;;;;;-3.25;96.59;97031.03;4979174;28;20209;-73
2021/03/07 02:58:24;;;;;;;15.17;6.53;;;;;;;-3.27;96.04;97031.09;4977599;28;20210;-73
2021/03/07 03:00:55;;;;;;;15.17;6.87;;;;;;;-3.51;96.51;97027.16;4978560;28;20214;-73
2021/03/07 03:03:27;;;;;;;12.40;5.73;;;;;;;-3.55;97.32;97028.19;4981718;28;20225;-73
2021/03/07 03:05:53;;;;;;;18.07;6.57;;;;;;;-3.51;96.12;97027.16;4978336;28;21029;-73
2021/03/07 03:08:21;;;;;;;16.10;6.60;;;;;;;-3.60;97.11;97019.84;4978676;28;20248;-73
2021/03/07 03:10:49;;;;;;;16.40;6.50;;;;;;;-3.50;97.69;97033.97;4977962;28;20220;-73
2021/03/07 03:13:16;;;;;;;12.63;6.77;;;;;;;-3.53;96.01;97033.28;4977786;28;20226;-73
2021/03/07 03:15:45;;;;;;;15.17;6.70;;;;;;;-3.63;96.99;97031.22;4977237;28;20213;-73
2021/03/07 03:18:12;;;;;;;17.13;7.37;;;;;;;-3.61;96.69;97041.38;4978097;28;20210;-73
2021/03/07 03:20:39;;;;;;;16.83;6.90;;;;;;;-3.48;96.63;97031.31;4980070;28;20573;-74
2021/03/07 03:23:05;;;;;;;16.93;7.77;;;;;;;-3.43;96.48;97032.75;4977917;28;20234;-73
2021/03/07 03:25:31;;;;;;;15.50;7.23;;;;;;;-3.46;95.79;97026.94;4977252;28;20543;-73
2021/03/07 03:27:59;;;;;;;15.70;6.87;;;;;;;-3.43;94.88;97032.75;4985628;28;20228;-73
2021/03/07 03:30:26;;;;;;;14.13;6.77;;;;;;;-3.47;95.26;97028.66;4977673;28;20209;-73
2021/03/07 03:32:53;;;;;;;15.40;6.73;;;;;;;-3.46;95.77;97030.34;4978493;28;20289;-73
2021/03/07 03:35:21;;;;;;;16.17;6.60;;;;;;;-3.69;95.58;97031.50;4976750;28;20210;-73
2021/03/07 03:37:49;;;;;;;15.93;6.93;;;;;;;-3.57;95.51;97024.84;4977767;28;20210;-73
2021/03/07 03:40:19;;;;;;;14.07;6.97;;;;;;;-3.56;95.97;97023.13;4977853;28;20218;-73
2021/03/07 03:42:50;;;;;;;12.83;6.40;;;;;;;-3.57;96.77;97021.47;4977769;28;20234;-73
2021/03/07 03:45:18;;;;;;;15.40;6.80;;;;;;;-3.55;96.07;97024.81;4976735;28;20214;-72
2021/03/07 03:47:49;;;;;;;14.50;7.67;;;;;;;-3.49;97.25;97019.34;4984832;28;20988;-73
2021/03/07 03:50:19;;;;;;;12.50;6.27;;;;;;;-3.59;97.37;97018.09;4977564;28;20209;-74
2021/03/07 03:52:48;;;;;;;15.27;7.53;;;;;;;-3.55;97.08;97022.22;4975884;28;20236;-73
2021/03/07 03:55:20;;;;;;;16.10;6.97;;;;;;;-3.57;97.24;97021.47;4976855;28;20257;-72
2021/03/07 03:57:48;;;;;;;14.23;6.57;;;;;;;-3.48;96.80;97019.25;4982079;28;21098;-72
2021/03/07 04:00:17;;;;;;;16.00;7.73;;;;;;;-3.47;96.71;97026.09;4988527;28;20208;-73
2021/03/07 04:02:45;;;;;;;16.00;7.27;;;;;;;-3.43;97.09;97025.03;4981409;28;20248;-73
2021/03/07 04:05:15;;;;;;;15.93;7.67;;;;;;;-3.48;96.76;97026.16;4980905;28;20207;-73
2021/03/07 04:07:45;;;;;;;17.10;8.20;;;;;;;-3.40;96.70;97019.75;4981015;28;20592;-73
2021/03/07 04:10:11;;;;;;;15.00;7.30;;;;;;;-3.40;96.02;97013.72;4980353;28;20699;-72
2021/03/07 04:12:38;;;;;;;13.60;7.33;;;;;;;-3.34;95.98;97018.59;4980402;28;20237;-73
2021/03/07 04:15:06;;;;;;;16.13;7.70;;;;;;;-3.54;96.45;97016.16;4979642;28;20215;-74
2021/03/07 04:17:32;;;;;;;17.67;7.70;;;;;;;-3.62;97.86;97013.94;4980359;28;20217;-73
2021/03/07 04:19:59;;;;;;;18.23;7.50;;;;;;;-3.71;98.27;97007.59;4983446;28;20647;-73
2021/03/07 04:22:25;;;;;;;16.50;7.17;;;;;;;-3.62;97.60;97011.34;4983935;28;20238;-73
2021/03/07 04:24:52;;;;;;;17.90;7.70;;;;;;;-3.63;96.90;97002.91;4980964;28;20250;-73
2021/03/07 04:27:19;;;;;;;15.37;6.73;;;;;;;-3.77;96.63;97008.69;4982255;28;20203;-73
2021/03/07 04:29:45;;;;;;;13.53;6.33;;;;;;;-3.88;98.21;97004.94;4980058;28;20563;-73
2021/03/07 04:32:12;;;;;;;15.40;7.47;;;;;;;-4.03;100.00;97008.28;4979908;28;20209;-73
2021/03/07 04:34:38;;;;;;;15.50;7.07;;;;;;;-3.89;100.00;97005.88;4980327;28;20688;-73
2021/03/07 04:37:05;;;;;;;14.50;7.10;;;;;;;-3.92;100.00;97009.44;4986101;28;20210;-73
2021/03/07 04:39:31;;;;;;;16.90;6.70;;;;;;;-3.88;100.00;97010.94;4990946;28;20557;-73
2021/03/07 04:41:58;;;;;;;19.77;7.00;;;;;;;-3.80;99.24;97019.13;4980114;28;20271;-73
2021/03/07 04:44:25;;;;;;;16.67;6.80;;;;;;;-3.74;98.19;97007.72;4979825;28;20238;-73
2021/03/07 04:46:51;;;;;;;12.70;6.23;;;;;;;-3.68;97.68;97018.53;4979536;28;20215;-74
2021/03/07 04:49:17;;;;;;;14.33;6.73;;;;;;;-3.72;97.03;97011.88;4980181;28;20235;-73
2021/03/07 04:51:43;;;;;;;14.00;6.93;;;;;;;-3.71;96.96;97010.97;4979823;28;20209;-72
2021/03/07 04:54:09;;;;;;;13.87;6.57;;;;;;;-3.77;98.37;97008.69;4984949;28;20713;-72
2021/03/07 04:56:35;;;;;;;12.40;6.13;;;;;;;-3.99;99.19;97000.31;4978854;28;20213;-73
2021/03/07 04:59:02;;;;;;;18.20;6.77;;;;;;;-4.06;100.00;96995.53;4979629;28;20711;-72
2021/03/07 05:01:28;;;;;;;12.80;6.33;;;;;;;-4.02;100.00;96992.75;4979713;28;20214;-73
2021/03/07 05:03:54;;;;;;;12.77;5.97;;;;;;;-3.99;99.15;96979.72;4979739;28;20269;-72
2021/03/07 05:06:23;;;;;;;15.53;6.40;;;;;;;-4.08;99.45;96971.63;4979138;28;20704;-73
2021/03/07 05:08:49;;;;;;;14.60;6.37;;;;;;;-3.99;100.00;96968.63;4978565;28;20842;-73
2021/03/07 05:11:15;;;;;;;16.40;7.17;;;;;;;-4.01;100.00;96958.41;4980007;28;20210;-73
2021/03/07 05:13:41;;;;;;;18.03;6.43;;;;;;;-3.90;100.00;96960.44;4980401;28;20288;-73
2021/03/07 05:16:09;;;;;;;14.47;6.20;;;;;;;-3.90;100.00;96955.31;4979478;28;20233;-73
2021/03/07 05:18:35;;;;;;;15.77;6.77;;;;;;;-3.97;100.00;96953.91;4987643;28;20222;-73
2021/03/07 05:21:01;;;;;;;21.90;7.40;;;;;;;-4.08;100.00;96992.22;4980262;28;20213;-73
2021/03/07 05:23:28;;;;;;;15.10;6.83;;;;;;;-4.17;100.00;96988.31;4979645;28;20225;-73
2021/03/07 05:25:54;;;;;;;18.00;7.23;;;;;;;-4.02;100.00;96979.03;4978939;28;20716;-72
2021/03/07 05:28:20;;;;;;;20.03;7.93;;;;;;;-3.95;100.00;96978.66;4979349;28;20262;-73
2021/03/07 05:30:45;;;;;;;18.70;7.60;;;;;;;-3.98;100.00;96970.28;4980151;28;20691;-72
2021/03/07 05:33:15;;;;;;;18.90;7.80;;;;;;;-3.94;100.00;96974.38;4978714;28;20230;-72
2021/03/07 05:35:41;;;;;;;16.57;7.33;;;;;;;-3.83;100.00;96972.97;4979067;28;20275;-73
2021/03/07 05:38:07;;;;;;;20.30;7.30;;;;;;;-3.77;99.03;96964.91;4979652;28;20207;-73
2021/03/07 05:40:35;;;;;;;18.83;7.60;;;;;;;-3.86;98.49;96970.50;4981501;28;20249;-73
2021/03/07 05:43:04;;;;;;;18.43;7.30;;;;;;;-4.16;100.00;96977.13;4979408;28;20303;-73
2021/03/07 05:45:30;;;;;;;25.33;9.07;;;;;;;-4.11;100.00;96966.59;4982030;28;21324;-72
2021/03/07 05:47:56;;;;;;;17.57;6.83;;;;;;;-4.26;100.00;96967.34;4980062;28;20240;-72
2021/03/07 05:50:24;;;;;;;19.83;7.50;;;;;;;-4.14;100.00;96961.59;4979176;28;20221;-72
2021/03/07 05:52:53;;;;;;;16.13;7.53;;;;;;;-4.13;100.00;96960.72;4979741;28;20230;-73
2021/03/07 05:55:19;;;;;;;17.63;7.17;;;;;;;-4.03;100.00;96965.34;4978144;28;20213;-73
2021/03/07 05:57:48;;;;;;;14.10;7.17;;;;;;;-3.89;99.75;96956.97;4979521;28;20206;-72
2021/03/07 06:00:15;;;;;;;16.53;7.30;;;;;;;-3.84;99.65;96957.59;4978917;28;20214;-73
2021/03/07 06:02:41;;;;;;;18.07;7.97;;;;;;;-3.78;99.36;96952.97;4987317;28;20253;-73
2021/03/07 06:05:09;;;;;;;19.70;8.10;;;;;;;-3.79;98.57;96937.59;4981144;28;20218;-73
2021/03/07 06:07:36;;;;;;;22.03;7.90;;;;;;;-3.89;99.04;96944.09;4982003;28;20213;-73
2021/03/07 06:10:14;;;;;;;12.50;6.97;;;;;;;-3.84;99.86;96937.00;4979241;28;20213;-73
2021/03/07 06:12:41;;;;;;;15.13;7.30;;;;;;;-3.79;100.00;96937.59;4987687;28;20917;-72
2021/03/07 06:15:08;;;;;;;15.47;7.50;;;;;;;-3.75;100.00;96939.94;4978440;28;20202;-73
2021/03/07 06:17:43;;;;;;;18.87;7.43;;;;;;;-3.76;100.00;96943.44;4978462;28;20211;-73
2021/03/07 06:20:11;;;;;;;33.90;16.20;;;;;;;-3.69;100.00;96939.66;4978062;28;20206;-73
2021/03/07 06:22:38;;;;;;;46.43;22.03;;;;;;;-3.54;100.00;96944.88;4979163;28;20243;-73
2021/03/07 06:25:06;;;;;;;32.10;14.93;;;;;;;-3.47;100.00;96946.22;4978156;28;20217;-73
2021/03/07 06:27:33;;;;;;;31.33;14.50;;;;;;;-3.38;99.98;96939.81;4978206;28;20207;-73
2021/03/07 06:30:04;;;;;;;34.10;14.87;;;;;;;-3.39;98.55;96933.78;4978274;28;20768;-73
2021/03/07 06:32:32;;;;;;;32.53;13.03;;;;;;;-3.34;97.84;96944.72;4978925;28;21534;-73
2021/03/07 06:34:59;;;;;;;25.57;11.60;;;;;;;-3.36;99.38;96933.66;4978547;28;20210;-73
2021/03/07 06:37:25;;;;;;;26.47;9.83;;;;;;;-3.22;99.06;96938.09;4978921;28;20211;-73
2021/03/07 06:39:52;;;;;;;25.93;10.00;;;;;;;-3.22;99.51;96945.84;4978288;28;20202;-73
2021/03/07 06:42:20;;;;;;;39.97;13.33;;;;;;;-3.14;99.14;96941.97;4978633;28;20215;-74
2021/03/07 06:45:03;;;;;;;46.60;14.23;;;;;;;-3.00;99.59;96936.94;4979431;28;20294;-74
2021/03/07 06:47:30;;;;;;;30.80;10.80;;;;;;;-2.99;100.00;96934.28;4982425;28;20214;-74
2021/03/07 06:50:20;;;;;;;36.37;11.57;;;;;;;-2.92;100.00;96937.38;4978828;28;20233;-73
2021/03/07 06:52:56;;;;;;;27.53;11.20;;;;;;;-2.74;100.00;96928.66;4972999;28;20409;-73
2021/03/07 06:55:25;;;;;;;25.83;11.33;;;;;;;-2.62;99.35;96938.31;4977934;28;20241;-74
2021/03/07 06:57:52;;;;;;;33.30;12.83;;;;;;;-2.57;98.94;96920.84;4978304;28;20210;-73
2021/03/07 07:00:36;;;;;;;37.53;13.70;;;;;;;-2.53;99.25;96930.94;4978011;28;20662;-74
2021/03/07 07:03:10;;;;;;;20.47;8.93;;;;;;;-2.39;98.39;96939.59;4978156;28;20231;-74
2021/03/07 07:05:38;;;;;;;20.13;8.70;;;;;;;-2.30;98.32;96940.88;4977906;28;20951;-74
2021/03/07 07:08:05;;;;;;;26.00;9.97;;;;;;;-2.24;97.52;96941.34;4978085;28;20235;-73
2021/03/07 07:10:56;;;;;;;25.77;11.03;;;;;;;-2.13;97.43;96944.16;4978079;28;20211;-73
2021/03/07 07:13:23;;;;;;;23.37;10.00;;;;;;;-2.27;97.38;96940.69;4978314;28;20322;-72
2021/03/07 07:15:56;;;;;;;26.60;9.87;;;;;;;-2.15;97.86;96940.00;4977922;28;20204;-72
2021/03/07 07:18:22;;;;;;;21.50;8.57;;;;;;;-2.14;97.84;96929.63;4977707;28;20675;-72
2021/03/07 07:20:48;;;;;;;19.90;8.53;;;;;;;-1.97;97.81;96929.50;4977712;28;20211;-73
2021/03/07 07:23:15;;;;;;;19.87;9.13;;;;;;;-1.85;97.28;96923.66;4978768;28;20281;-75
2021/03/07 07:25:42;;;;;;;21.53;9.87;;;;;;;-1.83;97.24;96927.00;4977252;28;20250;-74
2021/03/07 07:28:09;;;;;;;20.03;8.83;;;;;;;-1.75;96.26;96919.63;4981666;28;20230;-75
2021/03/07 07:30:36;;;;;;;22.97;9.00;;;;;;;-1.67;96.38;96917.44;4986704;28;20210;-74
2021/03/07 07:33:05;;;;;;;30.43;13.47;;;;;;;-1.70;96.66;96909.88;4983138;28;20756;-72
2021/03/07 07:35:32;;;;;;;24.63;11.33;;;;;;;-1.52;96.39;96916.56;4985119;28;20211;-72
2021/03/07 07:38:01;;;;;;;24.87;10.03;;;;;;;-1.39;97.92;96917.53;4981898;28;20203;-72
2021/03/07 07:40:33;;;;;;;22.27;10.07;;;;;;;-1.40;98.28;96906.38;4982334;28;20242;-73
2021/03/07 07:42:59;;;;;;;22.67;10.90;;;;;;;-1.26;95.80;96908.13;4981175;28;20253;-74
2021/03/07 07:45:27;;;;;;;22.40;10.47;;;;;;;-1.18;94.26;96901.59;4981842;28;20207;-73
2021/03/07 07:47:56;;;;;;;35.07;12.90;;;;;;;-1.27;93.45;96898.69;4981352;28;20318;-73
2021/03/07 07:50:31;;;;;;;30.77;12.70;;;;;;;-1.16;93.59;96908.34;4981293;28;20203;-73
2021/03/07 07:52:58;;;;;;;25.37;10.93;;;;;;;-1.08;92.36;96898.38;4983059;28;20308;-74
2021/03/07 07:55:43;;;;;;;25.97;9.73;;;;;;;-1.29;96.69;96893.63;4981860;28;20307;-72
2021/03/07 07:58:09;;;;;;;24.17;10.30;;;;;;;-1.07;96.51;96894.00;4980761;28;20203;-73
2021/03/07 08:00:50;;;;;;;32.37;13.93;;;;;;;-0.92;93.53;96896.50;4980920;28;20265;-73
2021/03/07 08:03:33;;;;;;;28.23;10.87;;;;;;;-0.69;91.83;96889.97;4981452;28;20328;-73
2021/03/07 08:06:01;;;;;;;24.20;10.53;;;;;;;-0.65;92.83;96892.25;4980889;28;20222;-74
2021/03/07 08:08:32;;;;;;;26.27;10.47;;;;;;;-0.60;91.62;96892.81;4986974;28;20237;-73
2021/03/07 08:10:58;;;;;;;34.40;13.33;;;;;;;-0.40;89.69;96895.81;4981769;28;20301;-73
2021/03/07 08:13:45;;;;;;;23.40;8.97;;;;;;;-0.33;88.16;96889.34;4980425;28;20258;-74
2021/03/07 08:16:13;;;;;;;41.97;13.57;;;;;;;-0.24;87.73;96887.91;4988588;28;20211;-74
2021/03/07 08:18:49;;;;;;;28.03;10.60;;;;;;;-0.10;87.40;96896.50;4980357;28;20235;-73
2021/03/07 08:21:16;;;;;;;23.13;10.17;;;;;;;-0.03;88.41;96881.41;4980026;28;20749;-74
2021/03/07 08:23:59;;;;;;;19.87;9.03;;;;;;;0.06;86.04;96886.81;4984430;28;20230;-74
2021/03/07 08:26:27;;;;;;;18.70;8.67;;;;;;;0.13;87.08;96882.91;4984725;28;20211;-74
2021/03/07 08:28:54;;;;;;;20.27;9.70;;;;;;;0.26;85.72;96876.81;4980034;28;20228;-73
2021/03/07 08:31:33;;;;;;;21.33;8.97;;;;;;;0.39;84.56;96869.09;4980413;28;20274;-73
2021/03/07 08:34:22;;;;;;;24.23;9.77;;;;;;;0.35;83.36;96880.59;4980784;28;20722;-73
2021/03/07 08:37:00;;;;;;;17.37;9.23;;;;;;;0.41;81.87;96868.06;4985561;28;20203;-73
2021/03/07 08:39:27;;;;;;;16.80;8.20;;;;;;;0.40;81.98;96862.97;4984468;28;20753;-73
2021/03/07 08:41:58;;;;;;;15.47;8.30;;;;;;;0.41;81.42;96868.06;4980721;28;20211;-74
2021/03/07 08:44:24;;;;;;;21.30;8.77;;;;;;;0.42;81.84;96867.13;4979904;28;20329;-73
2021/03/07 08:46:51;;;;;;;18.00;9.40;;;;;;;0.73;82.95;96858.97;4980215;28;20510;-74
2021/03/07 08:49:18;;;;;;;15.43;9.00;;;;;;;0.93;82.79;96863.63;4980267;28;20714;-73
2021/03/07 08:51:46;;;;;;;18.97;9.33;;;;;;;1.07;81.58;96858.31;4982438;28;20212;-73
2021/03/07 08:54:14;;;;;;;18.80;9.23;;;;;;;1.14;81.71;96850.03;4986362;28;20227;-73
2021/03/07 08:56:42;;;;;;;19.07;9.20;;;;;;;1.22;81.06;96853.75;4980556;28;20215;-74
2021/03/07 08:59:10;;;;;;;24.20;11.27;;;;;;;1.24;81.92;96841.47;4983655;28;20205;-74
2021/03/07 09:01:37;;;;;;;18.57;9.60;;;;;;;1.22;83.63;96851.16;4983561;28;20222;-74
2021/03/07 09:04:06;;;;;;;16.00;8.97;;;;;;;1.02;83.60;96855.22;4980431;28;20575;-74
2021/03/07 09:06:34;;;;;;;17.57;9.50;;;;;;;1.21;83.17;96844.31;4979400;28;21221;-74
2021/03/07 09:09:09;;;;;;;20.37;10.33;;;;;;;1.40;83.44;96839.50;4979566;28;20246;-74
2021/03/07 09:11:36;;;;;;;16.67;9.43;;;;;;;1.43;83.40;96836.69;4983322;28;20211;-73
2021/03/07 09:14:03;;;;;;;21.93;9.97;;;;;;;1.58;83.28;96830.41;4986757;28;20905;-74
2021/03/07 09:16:41;;;;;;;17.57;9.53;;;;;;;1.87;83.59;96822.19;4984791;28;20206;-73
2021/03/07 09:19:29;;;;;;;17.23;9.73;;;;;;;1.90;81.73;96819.38;4980367;28;20214;-72
2021/03/07 09:22:20;;;;;;;17.27;9.37;;;;;;;2.05;79.32;96812.22;4980355;28;20867;-72
2021/03/07 09:24:55;;;;;;;19.10;10.17;;;;;;;1.88;83.33;96812.63;4981558;28;20203;-72
2021/03/07 09:27:22;;;;;;;17.40;9.70;;;;;;;1.81;81.59;96814.00;4978637;28;20199;-73
2021/03/07 09:29:53;;;;;;;20.97;9.97;;;;;;;2.13;81.70;96813.31;4979283;28;20234;-74
2021/03/07 09:32:27;;;;;;;21.90;9.97;;;;;;;2.08;81.25;96812.00;4986241;28;20697;-72
2021/03/07 09:34:53;;;;;;;17.93;9.13;;;;;;;2.17;81.85;96813.94;4978398;28;20589;-72
2021/03/07 09:37:20;;;;;;;21.83;10.20;;;;;;;2.31;81.56;96805.94;4991343;28;20210;-72
2021/03/07 09:39:47;;;;;;;20.43;10.53;;;;;;;2.48;81.78;96806.34;4978875;28;20207;-73
2021/03/07 09:42:13;;;;;;;23.00;10.07;;;;;;;2.60;80.16;96798.44;4978882;28;20214;-72
2021/03/07 09:44:40;;;;;;;20.77;10.50;;;;;;;2.91;80.17;96802.16;4983208;28;20206;-73
2021/03/07 09:47:07;;;;;;;21.73;10.87;;;;;;;3.02;79.25;96787.38;4978185;28;20262;-73
2021/03/07 09:49:33;;;;;;;20.73;10.93;;;;;;;2.86;79.61;96789.50;4978845;28;20872;-73
2021/03/07 09:52:01;;;;;;;20.00;10.67;;;;;;;2.98;78.93;96779.91;4978776;28;20254;-73
2021/03/07 09:54:27;;;;;;;22.43;11.63;;;;;;;3.25;80.28;96776.00;4978677;28;20231;-73
2021/03/07 09:56:55;;;;;;;23.13;11.33;;;;;;;3.25;80.22;96778.63;4977767;28;20579;-74
2021/03/07 09:59:24;;;;;;;23.43;12.50;;;;;;;3.48;79.25;96777.63;4978677;28;20672;-74
2021/03/07 10:01:52;;;;;;;22.90;11.80;;;;;;;3.46;81.13;96775.13;4978169;28;20517;-73
2021/03/07 10:04:30;;;;;;;25.07;12.17;;;;;;;3.62;80.70;96774.78;4979022;28;20227;-74
2021/03/07 10:06:56;;;;;;;22.70;11.30;;;;;;;3.50;82.00;96775.72;4981562;28;20376;-73
2021/03/07 10:09:23;;;;;;;25.77;12.73;;;;;;;3.65;82.00;96765.75;4978368;28;20630;-74
2021/03/07 10:12:00;;;;;;;24.93;12.57;;;;;;;3.65;81.21;96770.97;4977451;28;20211;-74
2021/03/07 10:14:28;;;;;;;21.63;10.47;;;;;;;3.57;80.67;96766.50;4979563;28;20613;-73
2021/03/07 10:16:55;;;;;;;27.17;12.77;;;;;;;3.67;81.31;96763.84;4977295;28;20211;-73
2021/03/07 10:19:21;;;;;;;26.40;12.37;;;;;;;3.87;81.16;96764.84;4978094;28;20207;-74
2021/03/07 10:21:55;;;;;;;22.60;10.40;;;;;;;4.16;79.69;96756.31;4978273;28;20708;-74
2021/03/07 10:24:21;;;;;;;23.60;12.60;;;;;;;4.05;78.67;96752.91;4978115;28;20262;-74
2021/03/07 10:26:50;;;;;;;25.83;11.57;;;;;;;4.22;79.05;96745.38;4976923;28;20207;-74
2021/03/07 10:29:29;;;;;;;28.30;13.23;;;;;;;4.30;78.98;96748.16;4978339;28;20222;-74
2021/03/07 10:32:19;;;;;;;28.80;13.17;;;;;;;4.28;78.37;96743.09;4978803;28;20218;-75
2021/03/07 10:34:47;;;;;;;25.70;13.30;;;;;;;4.26;79.37;96746.78;4978346;28;20679;-74
2021/03/07 10:37:37;;;;;;;26.40;13.70;;;;;;;4.37;78.08;96737.09;4977262;28;20295;-74
2021/03/07 10:40:06;;;;;;;28.07;13.00;;;;;;;4.44;80.70;96730.44;4975019;28;20236;-74
2021/03/07 10:42:34;;;;;;;23.10;12.40;;;;;;;4.84;78.57;96724.31;4977962;28;20545;-74
2021/03/07 10:45:18;;;;;;;26.30;13.00;;;;;;;5.08;78.40;96724.84;4978157;28;20470;-73
2021/03/07 10:47:44;;;;;;;26.27;12.47;;;;;;;5.19;76.36;96718.69;4979642;28;20214;-72
2021/03/07 10:50:11;;;;;;;22.73;11.37;;;;;;;4.99;77.13;96712.56;4981788;28;20281;-72
2021/03/07 10:52:37;;;;;;;26.53;12.63;;;;;;;5.00;76.99;96716.84;4977481;28;20231;-71
2021/03/07 10:55:14;;;;;;;26.43;12.90;;;;;;;5.13;77.15;96709.59;4977349;28;20333;-72
2021/03/07 10:57:41;;;;;;;28.17;13.30;;;;;;;5.22;76.82;96714.03;4977526;28;20229;-72
2021/03/07 11:00:08;;;;;;;25.40;12.73;;;;;;;5.23;76.75;96707.84;4985483;28;20211;-72
2021/03/07 11:02:34;;;;;;;25.63;12.30;;;;;;;5.41;77.08;96706.25;4980300;28;20386;-72
2021/03/07 11:05:00;;;;;;;21.53;11.87;;;;;;;5.50;76.09;96708.03;4979138;28;20289;-71
2021/03/07 11:07:26;;;;;;;24.53;12.50;;;;;;;5.40;76.69;96696.75;4977422;28;20683;-73
2021/03/07 11:09:52;;;;;;;24.20;13.40;;;;;;;5.68;75.75;96693.34;4977804;28;20278;-73
2021/03/07 11:12:18;;;;;;;23.63;12.87;;;;;;;5.71;75.57;96690.44;4977244;28;20211;-73
2021/03/07 11:14:45;;;;;;;24.67;12.83;;;;;;;5.87;76.05;96691.59;4978053;28;20207;-74
2021/03/07 11:17:11;;;;;;;25.30;11.87;;;;;;;6.03;74.88;96691.03;4977033;28;20203;-74
2021/03/07 11:19:37;;;;;;;26.53;12.70;;;;;;;6.16;75.86;96682.78;4977181;28;20505;-73
2021/03/07 11:22:03;;;;;;;23.17;12.60;;;;;;;6.50;74.57;96675.25;4977552;28;20605;-73
2021/03/07 11:24:29;;;;;;;26.00;13.43;;;;;;;6.87;72.14;96669.91;4977631;28;20230;-73
2021/03/07 11:26:55;;;;;;;28.70;12.73;;;;;;;7.26;72.48;96662.69;4977802;28;20203;-73
2021/03/07 11:29:21;;;;;;;28.50;13.47;;;;;;;7.04;71.74;96670.91;4981176;28;20318;-73
2021/03/07 11:31:47;;;;;;;26.10;13.40;;;;;;;7.16;71.75;96654.88;4977142;28;20208;-74